This is the latest recevied weather packets stored in our database for station/object OE6JVE-13. If no packets are shown the sender has not sent any weather packets the latest 10 day(s).
| Time | Temp. | Humidity | Pressure | Rain* | Wind** | Luminosity | Snow |
|---|---|---|---|---|---|---|---|
| 1787927477 | 27.78° C | 66% | 1003.7 hPa | 0 mm | - | - | - |
| 1787926822 | 27.78° C | 63% | 1003.8 hPa | 0 mm | - | - | - |
| 1787926227 | 28.33° C | 60% | 1003.7 hPa | 0 mm | - | - | - |
| 1787925635 | 28.89° C | 60% | 1003.8 hPa | 0 mm | - | - | - |
| 1787925043 | 28.89° C | 59% | 1004 hPa | 0 mm | - | - | - |
| 1787924451 | 29.44° C | 58% | 1004 hPa | 0 mm | - | - | - |
| 1787923860 | 29.44° C | 55% | 1004.1 hPa | 0 mm | - | - | - |
| 1787923267 | 30.56° C | 52% | 1004.1 hPa | 0 mm | - | - | - |
| 1787922675 | 30° C | 52% | 1004.2 hPa | 0 mm | - | - | - |
| 1787922017 | 29.44° C | 55% | 1004.3 hPa | 0 mm | - | - | - |
| 1787921425 | 29.44° C | 52% | 1004.5 hPa | 0 mm | - | - | - |
| 1787920833 | 30° C | 50% | 1004.6 hPa | 0 mm | - | - | - |
| 1787920241 | 29.44° C | 50% | 1004.6 hPa | 0 mm | - | - | - |
| 1787919649 | 30° C | 50% | 1004.8 hPa | 0 mm | - | - | - |
| 1787919056 | 30° C | 50% | 1004.9 hPa | 0 mm | - | - | - |
| 1787918464 | 29.44° C | 50% | 1005.1 hPa | 0 mm | - | - | - |
| 1787917872 | 28.89° C | 50% | 1005.3 hPa | 0 mm | - | - | - |
| 1787917286 | 28.33° C | 51% | 1005.4 hPa | 0 mm | - | - | - |
| 1787916622 | 27.78° C | 52% | 1005.4 hPa | 0 mm | - | - | - |
| 1787916030 | 27.78° C | 52% | 1005.6 hPa | 0 mm | - | - | - |
| 1787915438 | 27.78° C | 51% | 1005.6 hPa | 0 mm | - | - | - |
| 1787914846 | 28.33° C | 50% | 1005.7 hPa | 0 mm | - | - | - |
| 1787914254 | 28.33° C | 50% | 1006 hPa | 0 mm | - | - | - |
| 1787913661 | 27.78° C | 51% | 1006.5 hPa | 0 mm | - | - | - |
| 1787913069 | 26.67° C | 53% | 1006.8 hPa | 0 mm | - | - | - |
* Rain latest hour (hover to see other rain measurements)
** Current wind speed in m/s (hover to see current wind gust speed)